M I D A S
Marine Information and Data Acquisition System
Tripno 1325 of the Zeeleeuw from 2007-08-21 06:48:31 to 2007-08-21 15:05:53
Back to CruiseResearch ActivitiesStationsMapUnderway DataData graphs

EquipmentUnitsComment
TimeDGPSUTC
LatitudeDGPSDM.mWGS84
LongitudeDGPSDM.mWGS84
TemperatureSBE03/SBE38deg celciusITS90
ConductivitySBE21S/mITS90
SalinitySBE21 Practical Salinity Units
ChlorophylAChelsea fluorimeterµg/lCalibrated in Aceton
Missing or incorrect values are displayed as -999
Sea surface data collected by the RV Zeeleeuw from 2007-08-21 06:43:33 to 2007-08-21 15:17:15
                                                                                    Next 1000 lines
Time Latitude Longitude Temperature Conductivity Salinity ChlorophylA
2007-08-21 06:43:43 51°13.602 2°56.1 -999 -999 -999 -999
2007-08-21 06:43:48 51°13.602 2°56.1 -999 -999 -999 -999
2007-08-21 06:43:53 51°13.602 2°56.1 -999 -999 -999 -999
2007-08-21 06:43:58 51°13.602 2°56.1 -999 -999 -999 -999
2007-08-21 06:44:03 51°13.603 2°56.1 -999 -999 -999 -999
2007-08-21 06:44:08 51°13.602 2°56.1 -999 -999 -999 -999
2007-08-21 06:44:13 51°13.602 2°56.1 -999 -999 -999 -999
2007-08-21 06:44:18 51°13.602 2°56.1 -999 -999 -999 -999
2007-08-21 06:44:23 51°13.602 2°56.101 -999 -999 -999 -999
2007-08-21 06:44:28 51°13.602 2°56.101 -999 -999 -999 -999
2007-08-21 06:44:33 51°13.602 2°56.101 -999 -999 -999 -999
2007-08-21 06:44:38 51°13.601 2°56.101 -999 -999 -999 -999
2007-08-21 06:44:43 51°13.601 2°56.101 -999 -999 -999 -999
2007-08-21 06:44:48 51°13.6 2°56.101 -999 -999 -999 -999
2007-08-21 06:44:53 51°13.6 2°56.101 -999 -999 -999 -999
2007-08-21 06:44:58 51°13.6 2°56.1 -999 -999 -999 -999
2007-08-21 06:45:03 51°13.6 2°56.1 -999 -999 -999 -999
2007-08-21 06:45:08 51°13.6 2°56.099 -999 -999 -999 -999
2007-08-21 06:45:13 51°13.6 2°56.098 -999 -999 -999 -999
2007-08-21 06:45:18 51°13.601 2°56.097 -999 -999 -999 -999
2007-08-21 06:45:23 51°13.601 2°56.095 -999 -999 -999 -999
2007-08-21 06:45:28 51°13.602 2°56.093 -999 -999 -999 -999
2007-08-21 06:45:33 51°13.602 2°56.091 -999 -999 -999 -999
2007-08-21 06:45:38 51°13.603 2°56.088 -999 -999 -999 -999
2007-08-21 06:45:43 51°13.604 2°56.084 -999 -999 -999 -999
2007-08-21 06:45:48 51°13.605 2°56.08 -999 -999 -999 -999
2007-08-21 06:45:53 51°13.607 2°56.075 -999 -999 -999 -999
2007-08-21 06:45:58 51°13.609 2°56.069 -999 -999 -999 -999
2007-08-21 06:46:03 51°13.611 2°56.062 -999 -999 -999 -999
2007-08-21 06:46:08 51°13.613 2°56.055 -999 -999 -999 -999
2007-08-21 06:46:13 51°13.616 2°56.047 -999 -999 -999 -999
2007-08-21 06:46:18 51°13.619 2°56.039 -999 -999 -999 -999
2007-08-21 06:46:23 51°13.622 2°56.03 -999 -999 -999 -999
2007-08-21 06:46:28 51°13.625 2°56.022 -999 -999 -999 -999
2007-08-21 06:46:33 51°13.628 2°56.013 -999 -999 -999 -999
2007-08-21 06:46:38 51°13.632 2°56.003 -999 -999 -999 -999
2007-08-21 06:46:43 51°13.635 2°55.994 -999 -999 -999 -999
2007-08-21 06:46:48 51°13.639 2°55.985 -999 -999 -999 -999
2007-08-21 06:46:53 51°13.642 2°55.975 -999 -999 -999 -999
2007-08-21 06:46:58 51°13.647 2°55.965 -999 -999 -999 -999
2007-08-21 06:47:03 51°13.651 2°55.955 -999 -999 -999 -999
2007-08-21 06:47:08 51°13.656 2°55.945 -999 -999 -999 -999
2007-08-21 06:47:13 51°13.66 2°55.935 -999 -999 -999 -999
2007-08-21 06:47:18 51°13.664 2°55.925 -999 -999 -999 -999
2007-08-21 06:47:23 51°13.666 2°55.915 -999 -999 -999 -999
2007-08-21 06:47:28 51°13.669 2°55.906 -999 -999 -999 -999
2007-08-21 06:47:33 51°13.672 2°55.897 -999 -999 -999 -999
2007-08-21 06:47:38 51°13.675 2°55.888 -999 -999 -999 -999
2007-08-21 06:47:43 51°13.678 2°55.88 -999 -999 -999 -999
2007-08-21 06:47:48 51°13.68 2°55.871 -999 -999 -999 -999
2007-08-21 06:47:53 51°13.683 2°55.863 -999 -999 -999 -999
2007-08-21 06:47:58 51°13.685 2°55.854 -999 -999 -999 -999
2007-08-21 06:48:03 51°13.687 2°55.846 -999 -999 -999 -999
2007-08-21 06:48:08 51°13.689 2°55.838 -999 -999 -999 -999
2007-08-21 06:48:13 51°13.69 2°55.83 -999 -999 -999 -999
2007-08-21 06:48:18 51°13.692 2°55.823 -999 -999 -999 -999
2007-08-21 06:48:23 51°13.693 2°55.815 -999 -999 -999 -999
2007-08-21 06:48:28 51°13.694 2°55.807 -999 -999 -999 -999
2007-08-21 06:48:33 51°13.695 2°55.799 -999 -999 -999 -999
2007-08-21 06:48:38 51°13.695 2°55.791 -999 -999 -999 -999
2007-08-21 06:48:43 51°13.696 2°55.783 -999 -999 -999 -999
2007-08-21 06:48:48 51°13.697 2°55.776 -999 -999 -999 -999
2007-08-21 06:48:53 51°13.697 2°55.768 -999 -999 -999 -999
2007-08-21 06:48:58 51°13.697 2°55.761 -999 -999 -999 -999
2007-08-21 06:49:03 51°13.697 2°55.754 -999 -999 -999 -999
2007-08-21 06:49:08 51°13.698 2°55.747 -999 -999 -999 -999
2007-08-21 06:49:13 51°13.698 2°55.741 -999 -999 -999 -999
2007-08-21 06:49:18 51°13.698 2°55.736 -999 -999 -999 -999
2007-08-21 06:49:23 51°13.698 2°55.731 -999 -999 -999 -999
2007-08-21 06:49:28 51°13.698 2°55.727 -999 -999 -999 -999
2007-08-21 06:49:33 51°13.697 2°55.725 -999 -999 -999 -999
2007-08-21 06:49:38 51°13.697 2°55.722 -999 -999 -999 -999
2007-08-21 06:49:43 51°13.697 2°55.719 -999 -999 -999 -999
2007-08-21 06:49:48 51°13.696 2°55.717 -999 -999 -999 -999
2007-08-21 06:49:53 51°13.696 2°55.715 -999 -999 -999 -999
2007-08-21 06:49:58 51°13.696 2°55.714 -999 -999 -999 -999
2007-08-21 06:50:03 51°13.696 2°55.712 -999 -999 -999 -999
2007-08-21 06:50:08 51°13.696 2°55.711 -999 -999 -999 -999
2007-08-21 06:50:13 51°13.696 2°55.711 -999 -999 -999 -999
2007-08-21 06:50:18 51°13.697 2°55.711 -999 -999 -999 -999
2007-08-21 06:50:23 51°13.697 2°55.711 -999 -999 -999 -999
2007-08-21 06:50:28 51°13.698 2°55.711 -999 -999 -999 -999
2007-08-21 06:50:33 51°13.698 2°55.712 -999 -999 -999 -999
2007-08-21 06:50:38 51°13.699 2°55.713 -999 -999 -999 -999
2007-08-21 06:50:43 51°13.701 2°55.714 -999 -999 -999 -999
2007-08-21 06:50:48 51°13.703 2°55.715 -999 -999 -999 -999
2007-08-21 06:50:53 51°13.706 2°55.716 -999 -999 -999 -999
2007-08-21 06:50:58 51°13.709 2°55.716 -999 -999 -999 -999
2007-08-21 06:51:03 51°13.712 2°55.717 -999 -999 -999 -999
2007-08-21 06:51:08 51°13.716 2°55.716 -999 -999 -999 -999
2007-08-21 06:51:13 51°13.721 2°55.715 -999 -999 -999 -999
2007-08-21 06:51:18 51°13.726 2°55.712 -999 -999 -999 -999
2007-08-21 06:51:23 51°13.731 2°55.709 -999 -999 -999 -999
2007-08-21 06:51:28 51°13.737 2°55.705 -999 -999 -999 -999
2007-08-21 06:51:33 51°13.743 2°55.701 -999 -999 -999 -999
2007-08-21 06:51:38 51°13.749 2°55.696 -999 -999 -999 -999
2007-08-21 06:51:43 51°13.756 2°55.691 -999 -999 -999 -999
2007-08-21 06:51:48 51°13.763 2°55.686 -999 -999 -999 -999
2007-08-21 06:51:53 51°13.77 2°55.681 -999 -999 -999 -999
2007-08-21 06:51:58 51°13.778 2°55.675 -999 -999 -999 -999
2007-08-21 06:52:03 51°13.785 2°55.669 -999 -999 -999 -999
2007-08-21 06:52:08 51°13.793 2°55.664 -999 -999 -999 -999
2007-08-21 06:52:13 51°13.801 2°55.658 -999 -999 -999 -999
2007-08-21 06:52:18 51°13.809 2°55.652 -999 -999 -999 -999
2007-08-21 06:52:23 51°13.817 2°55.646 -999 -999 -999 -999
2007-08-21 06:52:28 51°13.825 2°55.64 -999 -999 -999 -999
2007-08-21 06:52:33 51°13.834 2°55.634 -999 -999 -999 -999
2007-08-21 06:52:38 51°13.842 2°55.628 -999 -999 -999 -999
2007-08-21 06:52:43 51°13.851 2°55.621 -999 -999 -999 -999
2007-08-21 06:52:48 51°13.86 2°55.615 -999 -999 -999 -999
2007-08-21 06:52:53 51°13.868 2°55.608 -999 -999 -999 -999
2007-08-21 06:52:58 51°13.877 2°55.601 -999 -999 -999 -999
2007-08-21 06:53:03 51°13.885 2°55.595 -999 -999 -999 -999
2007-08-21 06:53:08 51°13.894 2°55.588 -999 -999 -999 -999
2007-08-21 06:53:13 51°13.903 2°55.581 -999 -999 -999 -999
2007-08-21 06:53:18 51°13.912 2°55.575 -999 -999 -999 -999
2007-08-21 06:53:23 51°13.921 2°55.568 -999 -999 -999 -999
2007-08-21 06:53:28 51°13.929 2°55.563 -999 -999 -999 -999
2007-08-21 06:53:33 51°13.938 2°55.557 -999 -999 -999 -999
2007-08-21 06:53:38 51°13.946 2°55.551 -999 -999 -999 -999
2007-08-21 06:53:43 51°13.954 2°55.546 -999 -999 -999 -999
2007-08-21 06:53:48 51°13.962 2°55.54 -999 -999 -999 -999
2007-08-21 06:53:53 51°13.969 2°55.535 -999 -999 -999 -999
2007-08-21 06:53:58 51°13.977 2°55.529 -999 -999 -999 -999
2007-08-21 06:54:03 51°13.984 2°55.524 -999 -999 -999 -999
2007-08-21 06:54:08 51°13.991 2°55.519 -999 -999 -999 -999
2007-08-21 06:54:13 51°13.998 2°55.514 -999 -999 -999 -999
2007-08-21 06:54:18 51°14.006 2°55.509 -999 -999 -999 -999
2007-08-21 06:54:23 51°14.013 2°55.504 -999 -999 -999 -999
2007-08-21 06:54:28 51°14.02 2°55.499 -999 -999 -999 -999
2007-08-21 06:54:33 51°14.027 2°55.494 -999 -999 -999 -999
2007-08-21 06:54:38 51°14.033 2°55.488 -999 -999 -999 -999
2007-08-21 06:54:43 51°14.04 2°55.484 -999 -999 -999 -999
2007-08-21 06:54:48 51°14.047 2°55.479 -999 -999 -999 -999
2007-08-21 06:54:53 51°14.053 2°55.473 -999 -999 -999 -999
2007-08-21 06:54:58 51°14.06 2°55.468 -999 -999 -999 -999
2007-08-21 06:55:03 51°14.067 2°55.463 -999 -999 -999 -999
2007-08-21 06:55:08 51°14.073 2°55.458 -999 -999 -999 -999
2007-08-21 06:55:13 51°14.079 2°55.453 -999 -999 -999 -999
2007-08-21 06:55:18 51°14.086 2°55.447 -999 -999 -999 -999
2007-08-21 06:55:23 51°14.093 2°55.442 -999 -999 -999 -999
2007-08-21 06:55:28 51°14.099 2°55.437 -999 -999 -999 -999
2007-08-21 06:55:33 51°14.106 2°55.431 -999 -999 -999 -999
2007-08-21 06:55:38 51°14.113 2°55.425 -999 -999 -999 -999
2007-08-21 06:55:43 51°14.12 2°55.419 -999 -999 -999 -999
2007-08-21 06:55:48 51°14.127 2°55.413 -999 -999 -999 -999
2007-08-21 06:55:53 51°14.134 2°55.407 -999 -999 -999 -999
2007-08-21 06:55:58 51°14.141 2°55.401 -999 -999 -999 -999
2007-08-21 06:56:03 51°14.148 2°55.395 -999 -999 -999 -999
2007-08-21 06:56:08 51°14.154 2°55.389 -999 -999 -999 -999
2007-08-21 06:56:13 51°14.161 2°55.383 -999 -999 -999 -999
2007-08-21 06:56:18 51°14.168 2°55.377 -999 -999 -999 -999
2007-08-21 06:56:23 51°14.175 2°55.37 -999 -999 -999 -999
2007-08-21 06:56:28 51°14.181 2°55.364 -999 -999 -999 -999
2007-08-21 06:56:33 51°14.188 2°55.357 -999 -999 -999 -999
2007-08-21 06:56:38 51°14.194 2°55.35 -999 -999 -999 -999
2007-08-21 06:56:43 51°14.2 2°55.342 -999 -999 -999 -999
2007-08-21 06:56:48 51°14.207 2°55.334 -999 -999 -999 -999
2007-08-21 06:56:54 51°14.214 2°55.325 -999 -999 -999 -999
2007-08-21 06:56:59 51°14.221 2°55.317 -999 -999 -999 -999
2007-08-21 06:57:04 51°14.227 2°55.308 -999 -999 -999 -999
2007-08-21 06:57:09 51°14.233 2°55.3 -999 -999 -999 -999
2007-08-21 06:57:14 51°14.239 2°55.291 -999 -999 -999 -999
2007-08-21 06:57:18 51°14.245 2°55.284 -999 -999 -999 -999
2007-08-21 06:57:24 51°14.252 2°55.274 -999 -999 -999 -999
2007-08-21 06:57:29 51°14.259 2°55.264 -999 -999 -999 -999
2007-08-21 06:57:34 51°14.266 2°55.253 -999 -999 -999 -999
2007-08-21 06:57:39 51°14.273 2°55.24 -999 -999 -999 -999
2007-08-21 06:57:44 51°14.28 2°55.227 -999 -999 -999 -999
2007-08-21 06:57:49 51°14.287 2°55.213 -999 -999 -999 -999
2007-08-21 06:57:53 51°14.293 2°55.201 -999 -999 -999 -999
2007-08-21 06:57:59 51°14.302 2°55.182 -999 -999 -999 -999
2007-08-21 06:58:04 51°14.31 2°55.166 -999 -999 -999 -999
2007-08-21 06:58:09 51°14.317 2°55.148 -999 -999 -999 -999
2007-08-21 06:58:13 51°14.324 2°55.133 -999 -999 -999 -999
2007-08-21 06:58:19 51°14.334 2°55.111 -999 -999 -999 -999
2007-08-21 06:58:24 51°14.342 2°55.092 -999 -999 -999 -999
2007-08-21 06:58:29 51°14.351 2°55.072 -999 -999 -999 -999
2007-08-21 06:58:33 51°14.358 2°55.055 -999 -999 -999 -999
2007-08-21 06:58:38 51°14.366 2°55.035 -999 -999 -999 -999
2007-08-21 06:58:43 51°14.374 2°55.014 -999 -999 -999 -999
2007-08-21 06:58:49 51°14.383 2°54.987 -999 -999 -999 -999
2007-08-21 06:58:54 51°14.39 2°54.964 -999 -999 -999 -999
2007-08-21 06:58:58 51°14.394 2°54.945 -999 -999 -999 -999
2007-08-21 06:59:04 51°14.401 2°54.917 -999 -999 -999 -999
2007-08-21 06:59:09 51°14.406 2°54.893 -999 -999 -999 -999
2007-08-21 06:59:14 51°14.411 2°54.869 -999 -999 -999 -999
2007-08-21 06:59:18 51°14.415 2°54.849 -999 -999 -999 -999
2007-08-21 06:59:24 51°14.42 2°54.82 -999 -999 -999 -999
2007-08-21 06:59:29 51°14.424 2°54.795 -999 -999 -999 -999
2007-08-21 06:59:34 51°14.427 2°54.77 -999 -999 -999 -999
2007-08-21 06:59:39 51°14.43 2°54.746 -999 -999 -999 -999
2007-08-21 06:59:44 51°14.432 2°54.72 -999 -999 -999 -999
2007-08-21 06:59:49 51°14.434 2°54.696 -999 -999 -999 -999
2007-08-21 06:59:54 51°14.435 2°54.672 -999 -999 -999 -999
2007-08-21 06:59:59 51°14.435 2°54.648 -999 -999 -999 -999
2007-08-21 07:00:04 51°14.434 2°54.623 -999 -999 -999 -999
2007-08-21 07:00:09 51°14.433 2°54.599 -999 -999 -999 -999
2007-08-21 07:00:13 51°14.433 2°54.58 -999 -999 -999 -999
2007-08-21 07:00:19 51°14.43 2°54.552 -999 -999 -999 -999
2007-08-21 07:00:24 51°14.426 2°54.529 -999 -999 -999 -999
2007-08-21 07:00:29 51°14.421 2°54.507 -999 -999 -999 -999
2007-08-21 07:00:34 51°14.415 2°54.486 -999 -999 -999 -999
2007-08-21 07:00:39 51°14.408 2°54.464 -999 -999 -999 -999
2007-08-21 07:00:44 51°14.401 2°54.444 -999 -999 -999 -999
2007-08-21 07:00:49 51°14.393 2°54.423 -999 -999 -999 -999
2007-08-21 07:00:53 51°14.388 2°54.407 -999 -999 -999 -999
2007-08-21 07:00:58 51°14.381 2°54.385 -999 -999 -999 -999
2007-08-21 07:01:04 51°14.372 2°54.36 -999 -999 -999 -999
2007-08-21 07:01:09 51°14.365 2°54.339 -999 -999 -999 -999
2007-08-21 07:01:14 51°14.358 2°54.318 -999 -999 -999 -999
2007-08-21 07:01:18 51°14.353 2°54.301 -999 -999 -999 -999
2007-08-21 07:01:24 51°14.343 2°54.276 -999 -999 -999 -999
2007-08-21 07:01:29 51°14.337 2°54.255 -999 -999 -999 -999
2007-08-21 07:01:34 51°14.329 2°54.234 -999 -999 -999 -999
2007-08-21 07:01:38 51°14.324 2°54.217 -999 -999 -999 -999
2007-08-21 07:01:44 51°14.314 2°54.192 -999 -999 -999 -999
2007-08-21 07:01:49 51°14.307 2°54.171 -999 -999 -999 -999
2007-08-21 07:01:54 51°14.299 2°54.15 -999 -999 -999 -999
2007-08-21 07:01:59 51°14.292 2°54.129 -999 -999 -999 -999
2007-08-21 07:02:04 51°14.285 2°54.108 -999 -999 -999 -999
2007-08-21 07:02:09 51°14.277 2°54.087 -999 -999 -999 -999
2007-08-21 07:02:14 51°14.271 2°54.066 -999 -999 -999 -999
2007-08-21 07:02:19 51°14.262 2°54.046 -999 -999 -999 -999
2007-08-21 07:02:24 51°14.257 2°54.024 -999 -999 -999 -999
2007-08-21 07:02:29 51°14.248 2°54.004 -999 -999 -999 -999
2007-08-21 07:02:33 51°14.243 2°53.986 -999 -999 -999 -999
2007-08-21 07:02:39 51°14.234 2°53.961 -999 -999 -999 -999
2007-08-21 07:02:44 51°14.227 2°53.94 -999 -999 -999 -999
2007-08-21 07:02:49 51°14.22 2°53.919 -999 -999 -999 -999
2007-08-21 07:02:54 51°14.213 2°53.898 -999 -999 -999 -999
2007-08-21 07:02:58 51°14.207 2°53.882 -999 -999 -999 -999
2007-08-21 07:03:04 51°14.198 2°53.857 -999 -999 -999 -999
2007-08-21 07:03:09 51°14.191 2°53.836 -999 -999 -999 -999
2007-08-21 07:03:14 51°14.184 2°53.815 -999 -999 -999 -999
2007-08-21 07:03:18 51°14.178 2°53.799 -999 -999 -999 -999
2007-08-21 07:03:24 51°14.169 2°53.774 -999 -999 -999 -999
2007-08-21 07:03:29 51°14.162 2°53.753 -999 -999 -999 -999
2007-08-21 07:03:34 51°14.154 2°53.732 -999 -999 -999 -999
2007-08-21 07:03:39 51°14.148 2°53.711 -999 -999 -999 -999
2007-08-21 07:03:44 51°14.14 2°53.69 -999 -999 -999 -999
2007-08-21 07:03:49 51°14.134 2°53.668 -999 -999 -999 -999
2007-08-21 07:03:54 51°14.126 2°53.648 -999 -999 -999 -999
2007-08-21 07:03:58 51°14.121 2°53.631 -999 -999 -999 -999
2007-08-21 07:04:04 51°14.112 2°53.606 -999 -999 -999 -999
2007-08-21 07:04:09 51°14.105 2°53.584 -999 -999 -999 -999
2007-08-21 07:04:14 51°14.098 2°53.564 -999 -999 -999 -999
2007-08-21 07:04:19 51°14.091 2°53.542 -999 -999 -999 -999
2007-08-21 07:04:24 51°14.084 2°53.521 -999 -999 -999 -999
2007-08-21 07:04:29 51°14.076 2°53.501 -999 -999 -999 -999
2007-08-21 07:04:33 51°14.071 2°53.483 -999 -999 -999 -999
2007-08-21 07:04:39 51°14.061 2°53.459 -999 -999 -999 -999
2007-08-21 07:04:44 51°14.055 2°53.438 -999 -999 -999 -999
2007-08-21 07:04:49 51°14.047 2°53.417 -999 -999 -999 -999
2007-08-21 07:04:53 51°14.042 2°53.4 -999 -999 -999 -999
2007-08-21 07:04:59 51°14.033 2°53.375 -999 -999 -999 -999
2007-08-21 07:05:04 51°14.026 2°53.354 -999 -999 -999 -999
2007-08-21 07:05:09 51°14.019 2°53.333 -999 -999 -999 -999
2007-08-21 07:05:13 51°14.014 2°53.316 -999 -999 -999 -999
2007-08-21 07:05:18 51°14.006 2°53.295 -999 -999 -999 -999
2007-08-21 07:05:24 51°13.998 2°53.27 -999 -999 -999 -999
2007-08-21 07:05:29 51°13.991 2°53.249 -999 -999 -999 -999
2007-08-21 07:05:34 51°13.985 2°53.227 -999 -999 -999 -999
2007-08-21 07:05:38 51°13.978 2°53.211 -999 -999 -999 -999
2007-08-21 07:05:44 51°13.97 2°53.185 -999 -999 -999 -999
2007-08-21 07:05:49 51°13.963 2°53.164 -999 -999 -999 -999
2007-08-21 07:05:54 51°13.956 2°53.144 -999 -999 -999 -999
2007-08-21 07:05:58 51°13.95 2°53.127 -999 -999 -999 -999
2007-08-21 07:06:04 51°13.942 2°53.102 -999 -999 -999 -999
2007-08-21 07:06:09 51°13.934 2°53.081 -999 -999 -999 -999
2007-08-21 07:06:14 51°13.927 2°53.06 -999 -999 -999 -999
2007-08-21 07:06:19 51°13.92 2°53.039 -999 -999 -999 -999
2007-08-21 07:06:24 51°13.913 2°53.018 -999 -999 -999 -999
2007-08-21 07:06:29 51°13.905 2°52.997 -999 -999 -999 -999
2007-08-21 07:06:34 51°13.898 2°52.975 -999 -999 -999 -999
2007-08-21 07:06:38 51°13.892 2°52.958 -999 -999 -999 -999
2007-08-21 07:06:44 51°13.884 2°52.932 -999 -999 -999 -999
2007-08-21 07:06:49 51°13.876 2°52.91 -999 -999 -999 -999
2007-08-21 07:06:53 51°13.87 2°52.892 -999 -999 -999 -999
2007-08-21 07:06:59 51°13.861 2°52.864 -999 -999 -999 -999
2007-08-21 07:07:04 51°13.853 2°52.841 -999 -999 -999 -999
2007-08-21 07:07:09 51°13.845 2°52.818 -999 -999 -999 -999
2007-08-21 07:07:14 51°13.838 2°52.795 -999 -999 -999 -999
2007-08-21 07:07:19 51°13.831 2°52.771 -999 -999 -999 -999
2007-08-21 07:07:24 51°13.823 2°52.749 -999 -999 -999 -999
2007-08-21 07:07:29 51°13.816 2°52.725 -999 -999 -999 -999
2007-08-21 07:07:33 51°13.81 2°52.706 -999 -999 -999 -999
2007-08-21 07:07:38 51°13.801 2°52.684 -999 -999 -999 -999
2007-08-21 07:07:44 51°13.792 2°52.656 -999 -999 -999 -999
2007-08-21 07:07:49 51°13.784 2°52.634 -999 -999 -999 -999
2007-08-21 07:07:54 51°13.775 2°52.611 -999 -999 -999 -999
2007-08-21 07:07:58 51°13.769 2°52.593 -999 -999 -999 -999
2007-08-21 07:08:04 51°13.758 2°52.566 -999 -999 -999 -999
2007-08-21 07:08:09 51°13.75 2°52.543 -999 -999 -999 -999
2007-08-21 07:08:14 51°13.74 2°52.522 -999 -999 -999 -999
2007-08-21 07:08:18 51°13.735 2°52.502 -999 -999 -999 -999
2007-08-21 07:08:24 51°13.723 2°52.476 -999 -999 -999 -999
2007-08-21 07:08:29 51°13.716 2°52.453 -999 -999 -999 -999
2007-08-21 07:08:34 51°13.707 2°52.431 -999 -999 -999 -999
2007-08-21 07:08:39 51°13.699 2°52.408 -999 -999 -999 -999
2007-08-21 07:08:44 51°13.69 2°52.385 -999 -999 -999 -999
2007-08-21 07:08:49 51°13.682 2°52.363 -999 -999 -999 -999
2007-08-21 07:08:54 51°13.673 2°52.34 -999 -999 -999 -999
2007-08-21 07:08:59 51°13.665 2°52.317 -999 -999 -999 -999
2007-08-21 07:09:04 51°13.657 2°52.294 -999 -999 -999 -999
2007-08-21 07:09:09 51°13.648 2°52.272 -999 -999 -999 -999
2007-08-21 07:09:13 51°13.642 2°52.253 -999 -999 -999 -999
2007-08-21 07:09:19 51°13.631 2°52.227 -999 -999 -999 -999
2007-08-21 07:09:24 51°13.623 2°52.204 -999 -999 -999 -999
2007-08-21 07:09:29 51°13.614 2°52.181 -999 -999 -999 -999
2007-08-21 07:09:33 51°13.608 2°52.163 -999 -999 -999 -999
2007-08-21 07:09:38 51°13.599 2°52.14 -999 -999 -999 -999
2007-08-21 07:09:44 51°13.59 2°52.112 -999 -999 -999 -999
2007-08-21 07:09:49 51°13.581 2°52.09 -999 -999 -999 -999
2007-08-21 07:09:54 51°13.574 2°52.066 -999 -999 -999 -999
2007-08-21 07:09:58 51°13.566 2°52.049 -999 -999 -999 -999
2007-08-21 07:10:04 51°13.557 2°52.021 -999 -999 -999 -999
2007-08-21 07:10:09 51°13.548 2°51.999 -999 -999 -999 -999
2007-08-21 07:10:14 51°13.54 2°51.976 -999 -999 -999 -999
2007-08-21 07:10:18 51°13.533 2°51.958 -999 -999 -999 -999
2007-08-21 07:10:24 51°13.523 2°51.931 -999 -999 -999 -999
2007-08-21 07:10:29 51°13.515 2°51.908 -999 -999 -999 -999
2007-08-21 07:10:34 51°13.506 2°51.885 -999 -999 -999 -999
2007-08-21 07:10:38 51°13.5 2°51.867 -999 -999 -999 -999
2007-08-21 07:10:44 51°13.49 2°51.839 -999 -999 -999 -999
2007-08-21 07:10:49 51°13.482 2°51.817 -999 -999 -999 -999
2007-08-21 07:10:54 51°13.473 2°51.794 -999 -999 -999 -999
2007-08-21 07:10:59 51°13.465 2°51.771 -999 -999 -999 -999
2007-08-21 07:11:04 51°13.456 2°51.748 -999 -999 -999 -999
2007-08-21 07:11:09 51°13.448 2°51.725 -999 -999 -999 -999
2007-08-21 07:11:13 51°13.442 2°51.707 -999 -999 -999 -999
2007-08-21 07:11:19 51°13.431 2°51.68 -999 -999 -999 -999
2007-08-21 07:11:24 51°13.423 2°51.657 -999 -999 -999 -999
2007-08-21 07:11:29 51°13.414 2°51.635 -999 -999 -999 -999
2007-08-21 07:11:33 51°13.408 2°51.616 -999 -999 -999 -999
2007-08-21 07:11:39 51°13.397 2°51.589 -999 -999 -999 -999
2007-08-21 07:11:44 51°13.389 2°51.567 -999 -999 -999 -999
2007-08-21 07:11:49 51°13.381 2°51.543 -999 -999 -999 -999
2007-08-21 07:11:53 51°13.374 2°51.525 -999 -999 -999 -999
2007-08-21 07:11:58 51°13.366 2°51.502 -999 -999 -999 -999
2007-08-21 07:12:04 51°13.355 2°51.475 -999 -999 -999 -999
2007-08-21 07:12:09 51°13.347 2°51.452 -999 -999 -999 -999
2007-08-21 07:12:14 51°13.339 2°51.43 -999 -999 -999 -999
2007-08-21 07:12:18 51°13.332 2°51.412 -999 -999 -999 -999
2007-08-21 07:12:24 51°13.322 2°51.385 -999 -999 -999 -999
2007-08-21 07:12:29 51°13.313 2°51.362 -999 -999 -999 -999
2007-08-21 07:12:34 51°13.305 2°51.339 -999 -999 -999 -999
2007-08-21 07:12:38 51°13.298 2°51.321 -999 -999 -999 -999
2007-08-21 07:12:44 51°13.288 2°51.293 -999 -999 -999 -999
2007-08-21 07:12:49 51°13.279 2°51.271 -999 -999 -999 -999
2007-08-21 07:12:54 51°13.272 2°51.248 -999 -999 -999 -999
2007-08-21 07:12:59 51°13.263 2°51.225 -999 -999 -999 -999
2007-08-21 07:13:04 51°13.254 2°51.202 -999 -999 -999 -999
2007-08-21 07:13:09 51°13.245 2°51.18 -999 -999 -999 -999
2007-08-21 07:13:14 51°13.237 2°51.157 -999 -999 -999 -999
2007-08-21 07:13:18 51°13.23 2°51.139 -999 -999 -999 -999
2007-08-21 07:13:24 51°13.22 2°51.112 -999 -999 -999 -999
2007-08-21 07:13:29 51°13.212 2°51.089 -999 -999 -999 -999
2007-08-21 07:13:34 51°13.203 2°51.066 -999 -999 -999 -999
2007-08-21 07:13:39 51°13.194 2°51.043 -999 -999 -999 -999
2007-08-21 07:13:44 51°13.186 2°51.02 -999 -999 -999 -999
2007-08-21 07:13:49 51°13.178 2°50.997 -999 -999 -999 -999
2007-08-21 07:13:54 51°13.17 2°50.973 -999 -999 -999 -999
2007-08-21 07:13:59 51°13.161 2°50.951 -999 -999 -999 -999
2007-08-21 07:14:04 51°13.153 2°50.927 -999 -999 -999 -999
2007-08-21 07:14:09 51°13.144 2°50.905 -999 -999 -999 -999
2007-08-21 07:14:13 51°13.139 2°50.886 -999 -999 -999 -999
2007-08-21 07:14:18 51°13.129 2°50.864 -999 -999 -999 -999
2007-08-21 07:14:24 51°13.12 2°50.835 -999 -999 -999 -999
2007-08-21 07:14:29 51°13.11 2°50.813 -999 -999 -999 -999
2007-08-21 07:14:34 51°13.103 2°50.789 -999 -999 -999 -999
2007-08-21 07:14:38 51°13.096 2°50.771 -999 -999 -999 -999
2007-08-21 07:14:44 51°13.086 2°50.743 -999 -999 -999 -999
2007-08-21 07:14:49 51°13.078 2°50.72 -999 -999 -999 -999
2007-08-21 07:14:54 51°13.069 2°50.696 -999 -999 -999 -999
2007-08-21 07:14:58 51°13.063 2°50.678 -999 -999 -999 -999
2007-08-21 07:15:04 51°13.053 2°50.65 -999 -999 -999 -999
2007-08-21 07:15:09 51°13.045 2°50.627 -999 -999 -999 -999
2007-08-21 07:15:14 51°13.036 2°50.603 -999 -999 -999 -999
2007-08-21 07:15:19 51°13.028 2°50.58 -999 -999 -999 -999
2007-08-21 07:15:24 51°13.019 2°50.557 -999 -999 -999 -999
2007-08-21 07:15:29 51°13.011 2°50.534 -999 -999 -999 -999
2007-08-21 07:15:34 51°13.002 2°50.511 -999 -999 -999 -999
2007-08-21 07:15:39 51°12.994 2°50.488 -999 -999 -999 -999
2007-08-21 07:15:44 51°12.985 2°50.465 -999 -999 -999 -999
2007-08-21 07:15:49 51°12.977 2°50.442 -999 -999 -999 -999
2007-08-21 07:15:53 51°12.97 2°50.423 -999 -999 -999 -999
2007-08-21 07:15:59 51°12.96 2°50.395 -999 -999 -999 -999
2007-08-21 07:16:04 51°12.951 2°50.372 -999 -999 -999 -999
2007-08-21 07:16:09 51°12.943 2°50.349 -999 -999 -999 -999
2007-08-21 07:16:13 51°12.936 2°50.331 -999 -999 -999 -999
2007-08-21 07:16:19 51°12.926 2°50.303 -999 -999 -999 -999
2007-08-21 07:16:24 51°12.917 2°50.28 -999 -999 -999 -999
2007-08-21 07:16:29 51°12.909 2°50.257 -999 -999 -999 -999
2007-08-21 07:16:34 51°12.9 2°50.234 -999 -999 -999 -999
2007-08-21 07:16:38 51°12.894 2°50.216 -999 -999 -999 -999
2007-08-21 07:16:44 51°12.884 2°50.188 -999 -999 -999 -999
2007-08-21 07:16:49 51°12.876 2°50.164 -999 -999 -999 -999
2007-08-21 07:16:53 51°12.869 2°50.146 -999 -999 -999 -999
2007-08-21 07:16:58 51°12.86 2°50.123 -999 -999 -999 -999
2007-08-21 07:17:04 51°12.85 2°50.094 -999 -999 -999 -999
2007-08-21 07:17:09 51°12.841 2°50.072 -999 -999 -999 -999
2007-08-21 07:17:14 51°12.834 2°50.048 -999 -999 -999 -999
2007-08-21 07:17:18 51°12.826 2°50.031 -999 -999 -999 -999
2007-08-21 07:17:24 51°12.817 2°50.002 -999 -999 -999 -999
2007-08-21 07:17:29 51°12.808 2°49.98 -999 -999 -999 -999
2007-08-21 07:17:34 51°12.8 2°49.956 -999 -999 -999 -999
2007-08-21 07:17:38 51°12.793 2°49.938 -999 -999 -999 -999
2007-08-21 07:17:44 51°12.783 2°49.91 -999 -999 -999 -999
2007-08-21 07:17:49 51°12.774 2°49.887 -999 -999 -999 -999
2007-08-21 07:17:54 51°12.765 2°49.865 -999 -999 -999 -999
2007-08-21 07:17:59 51°12.757 2°49.841 -999 -999 -999 -999
2007-08-21 07:18:04 51°12.748 2°49.818 -999 -999 -999 -999
2007-08-21 07:18:09 51°12.74 2°49.795 -999 -999 -999 -999
2007-08-21 07:18:13 51°12.733 2°49.777 -999 -999 -999 -999
2007-08-21 07:18:19 51°12.723 2°49.749 -999 -999 -999 -999
2007-08-21 07:18:24 51°12.713 2°49.728 -999 -999 -999 -999
2007-08-21 07:18:29 51°12.706 2°49.703 -999 -999 -999 -999
2007-08-21 07:18:33 51°12.697 2°49.686 -999 -999 -999 -999
2007-08-21 07:18:39 51°12.688 2°49.657 -999 -999 -999 -999
2007-08-21 07:18:44 51°12.679 2°49.635 -999 -999 -999 -999
2007-08-21 07:18:49 51°12.671 2°49.611 -999 -999 -999 -999
2007-08-21 07:18:54 51°12.662 2°49.588 -999 -999 -999 -999
2007-08-21 07:18:58 51°12.655 2°49.569 -999 -999 -999 -999
2007-08-21 07:19:04 51°12.645 2°49.542 -999 -999 -999 -999
2007-08-21 07:19:09 51°12.636 2°49.518 -999 -999 -999 -999
2007-08-21 07:19:14 51°12.628 2°49.495 -999 -999 -999 -999
2007-08-21 07:19:18 51°12.621 2°49.477 -999 -999 -999 -999
2007-08-21 07:19:24 51°12.611 2°49.448 -999 -999 -999 -999
2007-08-21 07:19:29 51°12.601 2°49.426 -999 -999 -999 -999
2007-08-21 07:19:34 51°12.594 2°49.402 -999 -999 -999 -999
2007-08-21 07:19:39 51°12.585 2°49.379 -999 -999 -999 -999
2007-08-21 07:19:44 51°12.577 2°49.355 -999 -999 -999 -999
2007-08-21 07:19:49 51°12.569 2°49.332 -999 -999 -999 -999
2007-08-21 07:19:54 51°12.562 2°49.307 -999 -999 -999 -999
2007-08-21 07:19:58 51°12.555 2°49.289 -999 -999 -999 -999
2007-08-21 07:20:04 51°12.546 2°49.259 -999 -999 -999 -999
2007-08-21 07:20:09 51°12.537 2°49.236 -999 -999 -999 -999
2007-08-21 07:20:14 51°12.531 2°49.211 -999 -999 -999 -999
2007-08-21 07:20:19 51°12.522 2°49.188 -999 -999 -999 -999
2007-08-21 07:20:24 51°12.515 2°49.163 -999 -999 -999 -999
2007-08-21 07:20:29 51°12.507 2°49.139 -999 -999 -999 -999
2007-08-21 07:20:34 51°12.5 2°49.116 -999 -999 -999 -999
2007-08-21 07:20:39 51°12.492 2°49.091 -999 -999 -999 -999
2007-08-21 07:20:44 51°12.485 2°49.067 -999 -999 -999 -999
2007-08-21 07:20:49 51°12.477 2°49.043 -999 -999 -999 -999
2007-08-21 07:20:53 51°12.472 2°49.023 -999 -999 -999 -999
2007-08-21 07:20:59 51°12.462 2°48.995 -999 -999 -999 -999
2007-08-21 07:21:04 51°12.455 2°48.971 -999 -999 -999 -999
2007-08-21 07:21:09 51°12.446 2°48.948 -999 -999 -999 -999
2007-08-21 07:21:14 51°12.439 2°48.923 -999 -999 -999 -999
2007-08-21 07:21:18 51°12.432 2°48.904 -999 -999 -999 -999
2007-08-21 07:21:24 51°12.424 2°48.875 -999 -999 -999 -999
2007-08-21 07:21:29 51°12.416 2°48.851 -999 -999 -999 -999
2007-08-21 07:21:34 51°12.408 2°48.827 -999 -999 -999 -999
2007-08-21 07:21:38 51°12.402 2°48.808 -999 -999 -999 -999
2007-08-21 07:21:44 51°12.393 2°48.779 -999 -999 -999 -999
2007-08-21 07:21:49 51°12.386 2°48.755 -999 -999 -999 -999
2007-08-21 07:21:54 51°12.378 2°48.731 -999 -999 -999 -999
2007-08-21 07:21:59 51°12.371 2°48.706 -999 -999 -999 -999
2007-08-21 07:22:04 51°12.363 2°48.682 -999 -999 -999 -999
2007-08-21 07:22:09 51°12.356 2°48.657 -999 -999 -999 -999
2007-08-21 07:22:14 51°12.347 2°48.634 -999 -999 -999 -999
2007-08-21 07:22:19 51°12.341 2°48.609 -999 -999 -999 -999
2007-08-21 07:22:24 51°12.333 2°48.585 -999 -999 -999 -999
2007-08-21 07:22:29 51°12.325 2°48.561 -999 -999 -999 -999
2007-08-21 07:22:34 51°12.318 2°48.537 -999 -999 -999 -999
2007-08-21 07:22:39 51°12.311 2°48.512 -999 -999 -999 -999
2007-08-21 07:22:44 51°12.304 2°48.487 -999 -999 -999 -999
2007-08-21 07:22:49 51°12.297 2°48.462 -999 -999 -999 -999
2007-08-21 07:22:53 51°12.292 2°48.442 -999 -999 -999 -999
2007-08-21 07:22:59 51°12.285 2°48.412 -999 -999 -999 -999
2007-08-21 07:23:04 51°12.279 2°48.386 -999 -999 -999 -999
2007-08-21 07:23:09 51°12.272 2°48.361 -999 -999 -999 -999
2007-08-21 07:23:14 51°12.268 2°48.335 -999 -999 -999 -999
2007-08-21 07:23:19 51°12.261 2°48.31 -999 -999 -999 -999
2007-08-21 07:23:24 51°12.256 2°48.285 -999 -999 -999 -999
2007-08-21 07:23:29 51°12.248 2°48.26 -999 -999 -999 -999
2007-08-21 07:23:33 51°12.245 2°48.239 -999 -999 -999 -999
2007-08-21 07:23:38 51°12.238 2°48.214 -999 -999 -999 -999
2007-08-21 07:23:44 51°12.232 2°48.183 -999 -999 -999 -999
2007-08-21 07:23:49 51°12.226 2°48.158 -999 -999 -999 -999
2007-08-21 07:23:54 51°12.22 2°48.132 -999 -999 -999 -999
2007-08-21 07:23:58 51°12.215 2°48.112 -999 -999 -999 -999
2007-08-21 07:24:04 51°12.207 2°48.082 -999 -999 -999 -999
2007-08-21 07:24:09 51°12.201 2°48.056 -999 -999 -999 -999
2007-08-21 07:24:14 51°12.195 2°48.031 -999 -999 -999 -999
2007-08-21 07:24:18 51°12.19 2°48.011 -999 -999 -999 -999
2007-08-21 07:24:24 51°12.183 2°47.98 -999 -999 -999 -999
2007-08-21 07:24:29 51°12.177 2°47.955 -999 -999 -999 -999
2007-08-21 07:24:34 51°12.171 2°47.93 -999 -999 -999 -999
2007-08-21 07:24:39 51°12.165 2°47.904 -999 -999 -999 -999
2007-08-21 07:24:44 51°12.159 2°47.879 -999 -999 -999 -999
2007-08-21 07:24:49 51°12.152 2°47.854 -999 -999 -999 -999
2007-08-21 07:24:53 51°12.148 2°47.834 -999 -999 -999 -999
2007-08-21 07:24:59 51°12.14 2°47.804 -999 -999 -999 -999
2007-08-21 07:25:04 51°12.134 2°47.779 -999 -999 -999 -999
2007-08-21 07:25:09 51°12.128 2°47.754 -999 -999 -999 -999
2007-08-21 07:25:14 51°12.122 2°47.728 -999 -999 -999 -999
2007-08-21 07:25:19 51°12.116 2°47.703 -999 -999 -999 -999
2007-08-21 07:25:24 51°12.108 2°47.679 -999 -999 -999 -999
2007-08-21 07:25:29 51°12.104 2°47.653 -999 -999 -999 -999
2007-08-21 07:25:34 51°12.097 2°47.628 -999 -999 -999 -999
2007-08-21 07:25:38 51°12.092 2°47.608 -999 -999 -999 -999
2007-08-21 07:25:44 51°12.085 2°47.577 -999 -999 -999 -999
2007-08-21 07:25:49 51°12.079 2°47.552 -999 -999 -999 -999
2007-08-21 07:25:54 51°12.073 2°47.527 -999 -999 -999 -999
2007-08-21 07:25:58 51°12.068 2°47.507 -999 -999 -999 -999
2007-08-21 07:26:04 51°12.06 2°47.477 -999 -999 -999 -999
2007-08-21 07:26:09 51°12.053 2°47.452 -999 -999 -999 -999
2007-08-21 07:26:14 51°12.047 2°47.426 -999 -999 -999 -999
2007-08-21 07:26:19 51°12.041 2°47.401 -999 -999 -999 -999
2007-08-21 07:26:24 51°12.035 2°47.375 -999 -999 -999 -999
2007-08-21 07:26:29 51°12.029 2°47.35 -999 -999 -999 -999
2007-08-21 07:26:34 51°12.023 2°47.325 -999 -999 -999 -999
2007-08-21 07:26:38 51°12.018 2°47.304 -999 -999 -999 -999
2007-08-21 07:26:44 51°12.01 2°47.274 -999 -999 -999 -999
2007-08-21 07:26:49 51°12.004 2°47.249 -999 -999 -999 -999
2007-08-21 07:26:54 51°11.998 2°47.224 -999 -999 -999 -999
2007-08-21 07:26:59 51°11.992 2°47.198 -999 -999 -999 -999
2007-08-21 07:27:04 51°11.986 2°47.173 -999 -999 -999 -999
2007-08-21 07:27:09 51°11.979 2°47.148 -999 -999 -999 -999
2007-08-21 07:27:14 51°11.974 2°47.122 -999 -999 -999 -999
2007-08-21 07:27:19 51°11.967 2°47.097 -999 -999 -999 -999
2007-08-21 07:27:24 51°11.961 2°47.071 -999 -999 -999 -999
2007-08-21 07:27:29 51°11.955 2°47.046 -999 -999 -999 -999
2007-08-21 07:27:33 51°11.95 2°47.025 -999 -999 -999 -999
2007-08-21 07:27:39 51°11.943 2°46.995 -999 -999 -999 -999
2007-08-21 07:27:44 51°11.937 2°46.969 -999 -999 -999 -999
2007-08-21 07:27:49 51°11.931 2°46.944 -999 -999 -999 -999
2007-08-21 07:27:53 51°11.926 2°46.923 -999 -999 -999 -999
2007-08-21 07:27:58 51°11.921 2°46.898 -999 -999 -999 -999
2007-08-21 07:28:04 51°11.914 2°46.867 -999 -999 -999 -999
2007-08-21 07:28:09 51°11.909 2°46.841 -999 -999 -999 -999
2007-08-21 07:28:14 51°11.904 2°46.815 -999 -999 -999 -999
2007-08-21 07:28:18 51°11.9 2°46.794 -999 -999 -999 -999
2007-08-21 07:28:24 51°11.895 2°46.762 -999 -999 -999 -999
2007-08-21 07:28:29 51°11.89 2°46.736 -999 -999 -999 -999
2007-08-21 07:28:34 51°11.886 2°46.71 -999 -999 -999 -999
2007-08-21 07:28:38 51°11.882 2°46.689 -999 -999 -999 -999
2007-08-21 07:28:44 51°11.876 2°46.658 -999 -999 -999 -999
2007-08-21 07:28:49 51°11.872 2°46.632 -999 -999 -999 -999
2007-08-21 07:28:54 51°11.867 2°46.606 -999 -999 -999 -999
2007-08-21 07:28:59 51°11.861 2°46.58 -999 -999 -999 -999
2007-08-21 07:29:04 51°11.857 2°46.554 -999 -999 -999 -999
2007-08-21 07:29:09 51°11.851 2°46.529 -999 -999 -999 -999
2007-08-21 07:29:14 51°11.847 2°46.503 -999 -999 -999 -999
2007-08-21 07:29:19 51°11.84 2°46.477 -999 -999 -999 -999
2007-08-21 07:29:24 51°11.835 2°46.451 -999 -999 -999 -999
2007-08-21 07:29:29 51°11.83 2°46.425 -999 -999 -999 -999
2007-08-21 07:29:33 51°11.826 2°46.404 -999 -999 -999 -999
2007-08-21 07:29:39 51°11.82 2°46.373 -999 -999 -999 -999
2007-08-21 07:29:44 51°11.814 2°46.347 -999 -999 -999 -999
2007-08-21 07:29:49 51°11.809 2°46.321 -999 -999 -999 -999
2007-08-21 07:29:54 51°11.804 2°46.295 -999 -999 -999 -999
2007-08-21 07:29:59 51°11.798 2°46.269 -999 -999 -999 -999
2007-08-21 07:30:04 51°11.793 2°46.244 -999 -999 -999 -999
2007-08-21 07:30:09 51°11.787 2°46.218 -999 -999 -999 -999
2007-08-21 07:30:13 51°11.783 2°46.197 -999 -999 -999 -999
2007-08-21 07:30:18 51°11.777 2°46.171 -999 -999 -999 -999
2007-08-21 07:30:24 51°11.771 2°46.14 -999 -999 -999 -999
2007-08-21 07:30:29 51°11.766 2°46.114 -999 -999 -999 -999
2007-08-21 07:30:34 51°11.76 2°46.088 -999 -999 -999 -999
2007-08-21 07:30:38 51°11.756 2°46.067 -999 -999 -999 -999
2007-08-21 07:30:44 51°11.75 2°46.036 -999 -999 -999 -999
2007-08-21 07:30:49 51°11.744 2°46.01 -999 -999 -999 -999
2007-08-21 07:30:54 51°11.739 2°45.984 -999 -999 -999 -999
2007-08-21 07:30:58 51°11.734 2°45.963 -999 -999 -999 -999
2007-08-21 07:31:04 51°11.728 2°45.932 -999 -999 -999 -999
2007-08-21 07:31:09 51°11.722 2°45.907 -999 -999 -999 -999
2007-08-21 07:31:14 51°11.717 2°45.88 -999 -999 -999 -999
2007-08-21 07:31:19 51°11.711 2°45.855 -999 -999 -999 -999
2007-08-21 07:31:24 51°11.706 2°45.829 -999 -999 -999 -999
2007-08-21 07:31:29 51°11.7 2°45.803 -999 -999 -999 -999
2007-08-21 07:31:34 51°11.695 2°45.777 -999 -999 -999 -999
2007-08-21 07:31:39 51°11.689 2°45.752 -999 -999 -999 -999
2007-08-21 07:31:44 51°11.685 2°45.725 -999 -999 -999 -999
2007-08-21 07:31:49 51°11.678 2°45.7 -999 -999 -999 -999
2007-08-21 07:31:53 51°11.675 2°45.678 -999 -999 -999 -999
2007-08-21 07:31:59 51°11.668 2°45.648 -999 -999 -999 -999
2007-08-21 07:32:04 51°11.662 2°45.622 -999 -999 -999 -999
2007-08-21 07:32:09 51°11.657 2°45.596 -999 -999 -999 -999
2007-08-21 07:32:14 51°11.652 2°45.57 -999 -999 -999 -999
2007-08-21 07:32:19 51°11.646 2°45.544 -999 -999 -999 -999
2007-08-21 07:32:24 51°11.641 2°45.518 -999 -999 -999 -999
2007-08-21 07:32:29 51°11.635 2°45.492 -999 -999 -999 -999
2007-08-21 07:32:34 51°11.63 2°45.466 -999 -999 -999 -999
2007-08-21 07:32:38 51°11.625 2°45.446 -999 -999 -999 -999
2007-08-21 07:32:44 51°11.619 2°45.414 -999 -999 -999 -999
2007-08-21 07:32:49 51°11.613 2°45.389 -999 -999 -999 -999
2007-08-21 07:32:54 51°11.607 2°45.363 -999 -999 -999 -999
2007-08-21 07:32:59 51°11.602 2°45.337 -999 -999 -999 -999
2007-08-21 07:33:04 51°11.596 2°45.311 -999 -999 -999 -999
2007-08-21 07:33:09 51°11.591 2°45.285 -999 -999 -999 -999
2007-08-21 07:33:14 51°11.585 2°45.259 -999 -999 -999 -999
2007-08-21 07:33:18 51°11.581 2°45.238 -999 -999 -999 -999
2007-08-21 07:33:24 51°11.574 2°45.208 -999 -999 -999 -999
2007-08-21 07:33:29 51°11.568 2°45.182 -999 -999 -999 -999
2007-08-21 07:33:34 51°11.563 2°45.156 -999 -999 -999 -999
2007-08-21 07:33:39 51°11.557 2°45.13 -999 -999 -999 -999
2007-08-21 07:33:44 51°11.552 2°45.103 -999 -999 -999 -999
2007-08-21 07:33:49 51°11.546 2°45.078 -999 -999 -999 -999
2007-08-21 07:33:54 51°11.541 2°45.051 -999 -999 -999 -999
2007-08-21 07:33:59 51°11.535 2°45.026 -999 -999 -999 -999
2007-08-21 07:34:04 51°11.529 2°45 -999 -999 -999 -999
2007-08-21 07:34:09 51°11.523 2°44.974 -999 -999 -999 -999
2007-08-21 07:34:13 51°11.52 2°44.952 -999 -999 -999 -999
2007-08-21 07:34:19 51°11.513 2°44.922 -999 -999 -999 -999
2007-08-21 07:34:24 51°11.507 2°44.895 -999 -999 -999 -999
2007-08-21 07:34:29 51°11.502 2°44.869 -999 -999 -999 -999
2007-08-21 07:34:33 51°11.497 2°44.848 -999 -999 -999 -999
2007-08-21 07:34:39 51°11.491 2°44.817 -999 -999 -999 -999
2007-08-21 07:34:44 51°11.485 2°44.791 -999 -999 -999 -999
2007-08-21 07:34:49 51°11.48 2°44.764 -999 -999 -999 -999
2007-08-21 07:34:54 51°11.474 2°44.738 -999 -999 -999 -999
2007-08-21 07:34:58 51°11.471 2°44.717 -999 -999 -999 -999
2007-08-21 07:35:04 51°11.463 2°44.686 -999 -999 -999 -999
2007-08-21 07:35:09 51°11.459 2°44.66 -999 -999 -999 -999
2007-08-21 07:35:14 51°11.452 2°44.634 -999 -999 -999 -999
2007-08-21 07:35:18 51°11.449 2°44.613 -999 -999 -999 -999
2007-08-21 07:35:24 51°11.442 2°44.582 -999 -999 -999 -999
2007-08-21 07:35:29 51°11.437 2°44.556 -999 -999 -999 -999
2007-08-21 07:35:34 51°11.431 2°44.53 -999 -999 -999 -999
2007-08-21 07:35:39 51°11.425 2°44.504 -999 -999 -999 -999
2007-08-21 07:35:44 51°11.42 2°44.478 -999 -999 -999 -999
2007-08-21 07:35:49 51°11.414 2°44.452 -999 -999 -999 -999
2007-08-21 07:35:54 51°11.408 2°44.426 -999 -999 -999 -999
2007-08-21 07:35:59 51°11.403 2°44.4 -999 -999 -999 -999
2007-08-21 07:36:04 51°11.397 2°44.374 -999 -999 -999 -999
2007-08-21 07:36:09 51°11.392 2°44.348 -999 -999 -999 -999
2007-08-21 07:36:14 51°11.386 2°44.322 -999 -999 -999 -999
2007-08-21 07:36:19 51°11.381 2°44.295 -999 -999 -999 -999
2007-08-21 07:36:24 51°11.376 2°44.269 -999 -999 -999 -999
2007-08-21 07:36:29 51°11.37 2°44.243 -999 -999 -999 -999
2007-08-21 07:36:34 51°11.365 2°44.217 -999 -999 -999 -999
2007-08-21 07:36:39 51°11.359 2°44.191 -999 -999 -999 -999
2007-08-21 07:36:44 51°11.354 2°44.165 -999 -999 -999 -999
2007-08-21 07:36:49 51°11.347 2°44.139 -999 -999 -999 -999
2007-08-21 07:36:53 51°11.343 2°44.118 -999 -999 -999 -999
2007-08-21 07:36:59 51°11.336 2°44.087 -999 -999 -999 -999
2007-08-21 07:37:04 51°11.331 2°44.061 -999 -999 -999 -999
2007-08-21 07:37:09 51°11.325 2°44.035 -999 -999 -999 -999
2007-08-21 07:37:14 51°11.319 2°44.009 -999 -999 -999 -999
2007-08-21 07:37:18 51°11.314 2°43.989 -999 -999 -999 -999
2007-08-21 07:37:24 51°11.308 2°43.958 -999 -999 -999 -999
2007-08-21 07:37:29 51°11.302 2°43.932 -999 -999 -999 -999
2007-08-21 07:37:34 51°11.296 2°43.905 -999 -999 -999 -999
2007-08-21 07:37:38 51°11.292 2°43.884 -999 -999 -999 -999
2007-08-21 07:37:44 51°11.284 2°43.854 -999 -999 -999 -999
2007-08-21 07:37:49 51°11.279 2°43.828 -999 -999 -999 -999
2007-08-21 07:37:54 51°11.273 2°43.801 -999 -999 -999 -999
2007-08-21 07:37:59 51°11.268 2°43.776 -999 -999 -999 -999
2007-08-21 07:38:04 51°11.261 2°43.75 -999 -999 -999 -999
2007-08-21 07:38:09 51°11.256 2°43.724 -999 -999 -999 -999
2007-08-21 07:38:14 51°11.25 2°43.697 -999 -999 -999 -999
2007-08-21 07:38:19 51°11.245 2°43.671 -999 -999 -999 -999
2007-08-21 07:38:24 51°11.239 2°43.645 -999 -999 -999 -999
2007-08-21 07:38:29 51°11.233 2°43.619 -999 -999 -999 -999
2007-08-21 07:38:34 51°11.229 2°43.593 -999 -999 -999 -999
2007-08-21 07:38:39 51°11.222 2°43.567 -999 -999 -999 -999
2007-08-21 07:38:44 51°11.217 2°43.54 -999 -999 -999 -999
2007-08-21 07:38:49 51°11.211 2°43.514 -999 -999 -999 -999
2007-08-21 07:38:54 51°11.207 2°43.487 -999 -999 -999 -999
2007-08-21 07:38:59 51°11.2 2°43.462 -999 -999 -999 -999
2007-08-21 07:39:04 51°11.196 2°43.436 -999 -999 -999 -999
2007-08-21 07:39:09 51°11.189 2°43.41 -999 -999 -999 -999
2007-08-21 07:39:14 51°11.185 2°43.383 -999 -999 -999 -999
2007-08-21 07:39:19 51°11.178 2°43.358 -999 -999 -999 -999
2007-08-21 07:39:24 51°11.173 2°43.331 -999 -999 -999 -999
2007-08-21 07:39:29 51°11.166 2°43.306 -999 -999 -999 -999
2007-08-21 07:39:34 51°11.162 2°43.279 -999 -999 -999 -999
2007-08-21 07:39:39 51°11.155 2°43.254 -999 -999 -999 -999
2007-08-21 07:39:44 51°11.15 2°43.228 -999 -999 -999 -999
2007-08-21 07:39:49 51°11.144 2°43.202 -999 -999 -999 -999
2007-08-21 07:39:54 51°11.139 2°43.175 -999 -999 -999 -999
2007-08-21 07:39:58 51°11.136 2°43.154 -999 -999 -999 -999
2007-08-21 07:40:04 51°11.13 2°43.122 -999 -999 -999 -999
2007-08-21 07:40:09 51°11.126 2°43.095 -999 -999 -999 -999
2007-08-21 07:40:14 51°11.122 2°43.068 -999 -999 -999 -999
2007-08-21 07:40:19 51°11.118 2°43.041 -999 -999 -999 -999
2007-08-21 07:40:24 51°11.116 2°43.014 -999 -999 -999 -999
2007-08-21 07:40:29 51°11.113 2°42.987 -999 -999 -999 -999
2007-08-21 07:40:34 51°11.11 2°42.959 -999 -999 -999 -999
2007-08-21 07:40:39 51°11.109 2°42.932 -999 -999 -999 -999
2007-08-21 07:40:44 51°11.106 2°42.905 -999 -999 -999 -999
2007-08-21 07:40:49 51°11.106 2°42.877 -999 -999 -999 -999
2007-08-21 07:40:54 51°11.104 2°42.849 -999 -999 -999 -999
2007-08-21 07:40:59 51°11.104 2°42.822 -999 -999 -999 -999
2007-08-21 07:41:04 51°11.103 2°42.795 -999 -999 -999 -999
2007-08-21 07:41:09 51°11.104 2°42.77 -999 -999 -999 -999
2007-08-21 07:41:14 51°11.103 2°42.745 -999 -999 -999 -999
2007-08-21 07:41:19 51°11.104 2°42.722 -999 -999 -999 -999
2007-08-21 07:41:24 51°11.105 2°42.699 -999 -999 -999 -999
2007-08-21 07:41:29 51°11.106 2°42.678 -999 -999 -999 -999
2007-08-21 07:41:34 51°11.109 2°42.657 -999 -999 -999 -999
2007-08-21 07:41:39 51°11.111 2°42.636 -999 -999 -999 -999
2007-08-21 07:41:44 51°11.114 2°42.618 -999 -999 -999 -999
2007-08-21 07:41:49 51°11.116 2°42.599 -999 -999 -999 -999
2007-08-21 07:41:54 51°11.118 2°42.582 -999 -999 -999 -999
2007-08-21 07:41:58 51°11.121 2°42.569 -999 -999 -999 -999
2007-08-21 07:42:04 51°11.123 2°42.55 -999 -999 -999 -999
2007-08-21 07:42:09 51°11.125 2°42.535 -999 -999 -999 -999
2007-08-21 07:42:14 51°11.127 2°42.52 -999 -999 -999 -999
2007-08-21 07:42:19 51°11.129 2°42.506 -999 -999 -999 -999
2007-08-21 07:42:24 51°11.13 2°42.491 -999 -999 -999 -999
2007-08-21 07:42:29 51°11.131 2°42.477 -999 -999 -999 -999
2007-08-21 07:42:34 51°11.132 2°42.463 -999 -999 -999 -999
2007-08-21 07:42:38 51°11.132 2°42.451 -999 -999 -999 -999
2007-08-21 07:42:44 51°11.133 2°42.434 -999 -999 -999 -999
2007-08-21 07:42:49 51°11.133 2°42.42 -999 -999 -999 -999
2007-08-21 07:42:54 51°11.133 2°42.406 -999 -999 -999 -999
2007-08-21 07:42:59 51°11.133 2°42.392 -999 -999 -999 -999
2007-08-21 07:43:04 51°11.132 2°42.377 -999 -999 -999 -999
2007-08-21 07:43:09 51°11.132 2°42.363 -999 -999 -999 -999
2007-08-21 07:43:14 51°11.131 2°42.349 -999 -999 -999 -999
2007-08-21 07:43:19 51°11.13 2°42.335 -999 -999 -999 -999
2007-08-21 07:43:24 51°11.13 2°42.321 -999 -999 -999 -999
2007-08-21 07:43:29 51°11.129 2°42.307 -999 -999 -999 -999
2007-08-21 07:43:33 51°11.128 2°42.296 -999 -999 -999 -999
2007-08-21 07:43:39 51°11.127 2°42.279 -999 -999 -999 -999
2007-08-21 07:43:44 51°11.126 2°42.264 -999 -999 -999 -999
2007-08-21 07:43:49 51°11.126 2°42.25 -999 -999 -999 -999
2007-08-21 07:43:54 51°11.125 2°42.237 -999 -999 -999 -999
2007-08-21 07:43:59 51°11.124 2°42.224 -999 -999 -999 -999
2007-08-21 07:44:04 51°11.124 2°42.211 -999 -999 -999 -999
2007-08-21 07:44:09 51°11.123 2°42.2 -999 -999 -999 -999
2007-08-21 07:44:14 51°11.123 2°42.188 -999 -999 -999 -999
2007-08-21 07:44:18 51°11.123 2°42.18 -999 -999 -999 -999
2007-08-21 07:44:24 51°11.123 2°42.168 -999 -999 -999 -999
2007-08-21 07:44:29 51°11.123 2°42.158 -999 -999 -999 -999
2007-08-21 07:44:34 51°11.123 2°42.149 -999 -999 -999 -999
2007-08-21 07:44:39 51°11.123 2°42.141 -999 -999 -999 -999
2007-08-21 07:44:44 51°11.123 2°42.132 -999 -999 -999 -999
2007-08-21 07:44:49 51°11.123 2°42.125 -999 -999 -999 -999
2007-08-21 07:44:54 51°11.123 2°42.117 -999 -999 -999 -999
2007-08-21 07:44:59 51°11.124 2°42.11 -999 -999 -999 -999
2007-08-21 07:45:04 51°11.124 2°42.103 -999 -999 -999 -999
2007-08-21 07:45:09 51°11.124 2°42.096 -999 -999 -999 -999
2007-08-21 07:45:14 51°11.124 2°42.09 -999 -999 -999 -999
2007-08-21 07:45:19 51°11.124 2°42.083 -999 -999 -999 -999
2007-08-21 07:45:24 51°11.124 2°42.078 -999 -999 -999 -999
2007-08-21 07:45:29 51°11.124 2°42.073 -999 -999 -999 -999
2007-08-21 07:45:34 51°11.125 2°42.069 -999 -999 -999 -999
2007-08-21 07:45:39 51°11.125 2°42.066 -999 -999 -999 -999
2007-08-21 07:45:44 51°11.126 2°42.062 -999 -999 -999 -999
2007-08-21 07:45:49 51°11.126 2°42.059 -999 -999 -999 -999
2007-08-21 07:45:54 51°11.126 2°42.056 -999 -999 -999 -999
2007-08-21 07:45:59 51°11.127 2°42.053 -999 -999 -999 -999
2007-08-21 07:46:04 51°11.127 2°42.05 -999 -999 -999 -999
2007-08-21 07:46:09 51°11.128 2°42.048 -999 -999 -999 -999
2007-08-21 07:46:14 51°11.128 2°42.045 -999 -999 -999 -999
2007-08-21 07:46:19 51°11.129 2°42.043 -999 -999 -999 -999
2007-08-21 07:46:24 51°11.129 2°42.041 -999 -999 -999 -999
2007-08-21 07:46:29 51°11.13 2°42.038 -999 -999 -999 -999
2007-08-21 07:46:34 51°11.13 2°42.036 -999 -999 -999 -999
2007-08-21 07:46:38 51°11.131 2°42.034 -999 -999 -999 -999
2007-08-21 07:46:44 51°11.132 2°42.032 -999 -999 -999 -999
2007-08-21 07:46:49 51°11.132 2°42.03 -999 -999 -999 -999
2007-08-21 07:46:54 51°11.133 2°42.028 -999 -999 -999 -999
2007-08-21 07:46:59 51°11.133 2°42.027 -999 -999 -999 -999
2007-08-21 07:47:04 51°11.134 2°42.025 -999 -999 -999 -999
2007-08-21 07:47:09 51°11.134 2°42.023 -999 -999 -999 -999
2007-08-21 07:47:14 51°11.135 2°42.022 -999 -999 -999 -999
2007-08-21 07:47:19 51°11.135 2°42.02 -999 -999 -999 -999
2007-08-21 07:47:24 51°11.136 2°42.019 -999 -999 -999 -999
2007-08-21 07:47:29 51°11.136 2°42.018 -999 -999 -999 -999
2007-08-21 07:47:34 51°11.136 2°42.017 -999 -999 -999 -999
2007-08-21 07:47:39 51°11.136 2°42.015 -999 -999 -999 -999
2007-08-21 07:47:44 51°11.136 2°42.014 -999 -999 -999 -999
2007-08-21 07:47:49 51°11.137 2°42.013 -999 -999 -999 -999
2007-08-21 07:47:54 51°11.137 2°42.012 -999 -999 -999 -999
2007-08-21 07:47:59 51°11.138 2°42.011 -999 -999 -999 -999
2007-08-21 07:48:04 51°11.138 2°42.01 -999 -999 -999 -999
2007-08-21 07:48:09 51°11.138 2°42.009 -999 -999 -999 -999
2007-08-21 07:48:14 51°11.138 2°42.008 -999 -999 -999 -999
2007-08-21 07:48:19 51°11.138 2°42.007 -999 -999 -999 -999
2007-08-21 07:48:24 51°11.138 2°42.006 -999 -999 -999 -999
2007-08-21 07:48:29 51°11.139 2°42.005 -999 -999 -999 -999
2007-08-21 07:48:34 51°11.139 2°42.004 -999 -999 -999 -999
2007-08-21 07:48:38 51°11.139 2°42.004 -999 -999 -999 -999
2007-08-21 07:48:44 51°11.139 2°42.003 -999 -999 -999 -999
2007-08-21 07:48:49 51°11.139 2°42.001 -999 -999 -999 -999
2007-08-21 07:48:54 51°11.14 2°42 -999 -999 -999 -999
2007-08-21 07:48:59 51°11.14 2°41.998 -999 -999 -999 -999
2007-08-21 07:49:04 51°11.141 2°41.996 -999 -999 -999 -999
2007-08-21 07:49:09 51°11.142 2°41.993 -999 -999 -999 -999
2007-08-21 07:49:14 51°11.143 2°41.99 -999 -999 -999 -999
2007-08-21 07:49:18 51°11.144 2°41.986 -999 -999 -999 -999
2007-08-21 07:49:24 51°11.146 2°41.98 -999 -999 -999 -999
2007-08-21 07:49:29 51°11.148 2°41.974 -999 -999 -999 -999
2007-08-21 07:49:34 51°11.149 2°41.967 -999 -999 -999 -999
2007-08-21 07:49:39 51°11.151 2°41.958 -999 -999 -999 -999
2007-08-21 07:49:44 51°11.151 2°41.949 -999 -999 -999 -999
2007-08-21 07:49:49 51°11.152 2°41.938 -999 -999 -999 -999
2007-08-21 07:49:54 51°11.152 2°41.926 -999 -999 -999 -999
2007-08-21 07:49:59 51°11.15 2°41.914 -999 -999 -999 -999
2007-08-21 07:50:04 51°11.148 2°41.901 -999 -999 -999 -999
2007-08-21 07:50:09 51°11.145 2°41.888 -999 -999 -999 -999
2007-08-21 07:50:13 51°11.142 2°41.878 -999 -999 -999 -999
2007-08-21 07:50:19 51°11.136 2°41.86 -999 -999 -999 -999
2007-08-21 07:50:24 51°11.13 2°41.845 -999 -999 -999 -999
2007-08-21 07:50:29 51°11.123 2°41.827 -999 -999 -999 -999
2007-08-21 07:50:34 51°11.116 2°41.809 -999 -999 -999 -999
2007-08-21 07:50:38 51°11.109 2°41.794 -999 -999 -999 -999
2007-08-21 07:50:44 51°11.1 2°41.769 -999 -999 -999 -999
2007-08-21 07:50:49 51°11.092 2°41.748 -999 -999 -999 -999
2007-08-21 07:50:54 51°11.084 2°41.725 -999 -999 -999 -999
2007-08-21 07:50:58 51°11.077 2°41.708 -999 -999 -999 -999
2007-08-21 07:51:04 51°11.067 2°41.681 -999 -999 -999 -999
2007-08-21 07:51:09 51°11.06 2°41.657 -999 -999 -999 -999
2007-08-21 07:51:14 51°11.051 2°41.633 -999 -999 -999 -999
2007-08-21 07:51:19 51°11.043 2°41.61 -999 -999 -999 -999
2007-08-21 07:51:24 51°11.037 2°41.585 -999 -999 -999 -999
2007-08-21 07:51:29 51°11.028 2°41.561 -999 -999 -999 -999
2007-08-21 07:51:34 51°11.022 2°41.535 -999 -999 -999 -999
2007-08-21 07:51:39 51°11.014 2°41.511 -999 -999 -999 -999
2007-08-21 07:51:44 51°11.007 2°41.484 -999 -999 -999 -999
2007-08-21 07:51:49 51°11 2°41.459 -999 -999 -999 -999
2007-08-21 07:51:54 51°10.994 2°41.433 -999 -999 -999 -999
2007-08-21 07:51:59 51°10.987 2°41.408 -999 -999 -999 -999
2007-08-21 07:52:04 51°10.981 2°41.382 -999 -999 -999 -999
2007-08-21 07:52:09 51°10.974 2°41.357 -999 -999 -999 -999
2007-08-21 07:52:14 51°10.967 2°41.332 -999 -999 -999 -999
2007-08-21 07:52:19 51°10.961 2°41.306 -999 -999 -999 -999
2007-08-21 07:52:24 51°10.954 2°41.281 -999 -999 -999 -999
2007-08-21 07:52:29 51°10.948 2°41.255 -999 -999 -999 -999
2007-08-21 07:52:34 51°10.941 2°41.23 -999 -999 -999 -999
2007-08-21 07:52:38 51°10.935 2°41.21 -999 -999 -999 -999
2007-08-21 07:52:44 51°10.927 2°41.179 -999 -999 -999 -999
2007-08-21 07:52:49 51°10.92 2°41.154 -999 -999 -999 -999
2007-08-21 07:52:53 51°10.915 2°41.133 -999 -999 -999 -999
2007-08-21 07:52:58 51°10.908 2°41.108 -999 -999 -999 -999
2007-08-21 07:53:04 51°10.9 2°41.077 -999 -999 -999 -999
2007-08-21 07:53:09 51°10.892 2°41.053 -999 -999 -999 -999
2007-08-21 07:53:14 51°10.887 2°41.027 -999 -999 -999 -999
2007-08-21 07:53:18 51°10.88 2°41.008 -999 -999 -999 -999
2007-08-21 07:53:24 51°10.873 2°40.976 -999 -999 -999 -999
2007-08-21 07:53:29 51°10.865 2°40.952 -999 -999 -999 -999
2007-08-21 07:53:34 51°10.858 2°40.926 -999 -999 -999 -999
2007-08-21 07:53:38 51°10.854 2°40.905 -999 -999 -999 -999
2007-08-21 07:53:44 51°10.845 2°40.875 -999 -999 -999 -999
2007-08-21 07:53:49 51°10.84 2°40.85 -999 -999 -999 -999
2007-08-21 07:53:54 51°10.833 2°40.825 -999 -999 -999 -999
2007-08-21 07:53:59 51°10.827 2°40.799 -999 -999 -999 -999
2007-08-21 07:54:04 51°10.819 2°40.774 -999 -999 -999 -999
2007-08-21 07:54:09 51°10.814 2°40.748 -999 -999 -999 -999
2007-08-21 07:54:14 51°10.806 2°40.723 -999 -999 -999 -999
2007-08-21 07:54:19 51°10.801 2°40.697 -999 -999 -999 -999
2007-08-21 07:54:24 51°10.793 2°40.672 -999 -999 -999 -999
2007-08-21 07:54:29 51°10.787 2°40.646 -999 -999 -999 -999
2007-08-21 07:54:33 51°10.782 2°40.626 -999 -999 -999 -999
2007-08-21 07:54:39 51°10.773 2°40.596 -999 -999 -999 -999
2007-08-21 07:54:44 51°10.768 2°40.57 -999 -999 -999 -999
2007-08-21 07:54:49 51°10.76 2°40.545 -999 -999 -999 -999
2007-08-21 07:54:54 51°10.755 2°40.519 -999 -999 -999 -999
2007-08-21 07:54:58 51°10.748 2°40.5 -999 -999 -999 -999
2007-08-21 07:55:04 51°10.74 2°40.469 -999 -999 -999 -999
2007-08-21 07:55:09 51°10.733 2°40.443 -999 -999 -999 -999
2007-08-21 07:55:14 51°10.728 2°40.417 -999 -999 -999 -999
2007-08-21 07:55:18 51°10.721 2°40.398 -999 -999 -999 -999
2007-08-21 07:55:24 51°10.714 2°40.367 -999 -999 -999 -999
2007-08-21 07:55:29 51°10.707 2°40.342 -999 -999 -999 -999
2007-08-21 07:55:34 51°10.701 2°40.316 -999 -999 -999 -999
2007-08-21 07:55:39 51°10.695 2°40.29 -999 -999 -999 -999
2007-08-21 07:55:44 51°10.688 2°40.265 -999 -999 -999 -999
2007-08-21 07:55:49 51°10.683 2°40.238 -999 -999 -999 -999
2007-08-21 07:55:54 51°10.676 2°40.213 -999 -999 -999 -999
2007-08-21 07:55:58 51°10.673 2°40.191 -999 -999 -999 -999
2007-08-21 07:56:04 51°10.666 2°40.16 -999 -999 -999 -999
2007-08-21 07:56:09 51°10.66 2°40.134 -999 -999 -999 -999
2007-08-21 07:56:14 51°10.655 2°40.108 -999 -999 -999 -999
2007-08-21 07:56:19 51°10.648 2°40.082 -999 -999 -999 -999
2007-08-21 07:56:24 51°10.644 2°40.056 -999 -999 -999 -999
2007-08-21 07:56:29 51°10.637 2°40.03 -999 -999 -999 -999
2007-08-21 07:56:34 51°10.632 2°40.004 -999 -999 -999 -999
2007-08-21 07:56:39 51°10.625 2°39.978 -999 -999 -999 -999
2007-08-21 07:56:44 51°10.62 2°39.952 -999 -999 -999 -999
2007-08-21 07:56:49 51°10.614 2°39.927 -999 -999 -999 -999
2007-08-21 07:56:53 51°10.61 2°39.906 -999 -999 -999 -999
2007-08-21 07:56:59 51°10.602 2°39.874 -999 -999 -999 -999
2007-08-21 07:57:04 51°10.597 2°39.848 -999 -999 -999 -999
2007-08-21 07:57:09 51°10.591 2°39.822 -999 -999 -999 -999
2007-08-21 07:57:14 51°10.585 2°39.796 -999 -999 -999 -999
2007-08-21 07:57:18 51°10.58 2°39.776 -999 -999 -999 -999
2007-08-21 07:57:24 51°10.573 2°39.745 -999 -999 -999 -999
2007-08-21 07:57:29 51°10.567 2°39.719 -999 -999 -999 -999
2007-08-21 07:57:34 51°10.561 2°39.693 -999 -999 -999 -999
2007-08-21 07:57:38 51°10.557 2°39.672 -999 -999 -999 -999
2007-08-21 07:57:44 51°10.549 2°39.641 -999 -999 -999 -999
2007-08-21 07:57:49 51°10.543 2°39.615 -999 -999 -999 -999
2007-08-21 07:57:54 51°10.537 2°39.589 -999 -999 -999 -999
2007-08-21 07:57:59 51°10.532 2°39.563 -999 -999 -999 -999
2007-08-21 07:58:04 51°10.525 2°39.537 -999 -999 -999 -999
2007-08-21 07:58:09 51°10.521 2°39.511 -999 -999 -999 -999
2007-08-21 07:58:14 51°10.514 2°39.485 -999 -999 -999 -999
2007-08-21 07:58:19 51°10.509 2°39.458 -999 -999 -999 -999
2007-08-21 07:58:24 51°10.503 2°39.433 -999 -999 -999 -999
2007-08-21 07:58:29 51°10.497 2°39.406 -999 -999 -999 -999
2007-08-21 07:58:34 51°10.491 2°39.38 -999 -999 -999 -999
2007-08-21 07:58:39 51°10.485 2°39.354 -999 -999 -999 -999
2007-08-21 07:58:44 51°10.479 2°39.328 -999 -999 -999 -999
2007-08-21 07:58:49 51°10.473 2°39.302 -999 -999 -999 -999
2007-08-21 07:58:53 51°10.468 2°39.28 -999 -999 -999 -999
2007-08-21 07:58:59 51°10.461 2°39.249 -999 -999 -999 -999
2007-08-21 07:59:04 51°10.455 2°39.223 -999 -999 -999 -999
2007-08-21 07:59:09 51°10.449 2°39.197 -999 -999 -999 -999
2007-08-21 07:59:14 51°10.443 2°39.171 -999 -999 -999 -999
2007-08-21 07:59:19 51°10.437 2°39.144 -999 -999 -999 -999
2007-08-21 07:59:24 51°10.431 2°39.119 -999 -999 -999 -999
2007-08-21 07:59:29 51°10.425 2°39.092 -999 -999 -999 -999
2007-08-21 07:59:33 51°10.421 2°39.071 -999 -999 -999 -999
2007-08-21 07:59:38 51°10.416 2°39.045 -999 -999 -999 -999
2007-08-21 07:59:44 51°10.409 2°39.014 -999 -999 -999 -999
2007-08-21 07:59:49 51°10.403 2°38.988 -999 -999 -999 -999
2007-08-21 07:59:54 51°10.396 2°38.961 -999 -999 -999 -999
2007-08-21 07:59:58 51°10.392 2°38.94 -999 -999 -999 -999
2007-08-21 08:00:04 51°10.385 2°38.909 -999 -999 -999 -999
2007-08-21 08:00:09 51°10.379 2°38.883 -999 -999 -999 -999
2007-08-21 08:00:14 51°10.373 2°38.857 -999 -999 -999 -999
2007-08-21 08:00:18 51°10.368 2°38.836 -999 -999 -999 -999
2007-08-21 08:00:24 51°10.36 2°38.805 -999 -999 -999 -999
2007-08-21 08:00:29 51°10.354 2°38.779 -999 -999 -999 -999
2007-08-21 08:00:34 51°10.349 2°38.753 -999 -999 -999 -999
2007-08-21 08:00:39 51°10.343 2°38.726 -999 -999 -999 -999
2007-08-21 08:00:44 51°10.337 2°38.7 -999 -999 -999 -999
2007-08-21 08:00:49 51°10.332 2°38.673 -999 -999 -999 -999
2007-08-21 08:00:54 51°10.326 2°38.648 -999 -999 -999 -999
2007-08-21 08:00:59 51°10.32 2°38.621 -999 -999 -999 -999
2007-08-21 08:01:04 51°10.314 2°38.595 -999 -999 -999 -999
2007-08-21 08:01:09 51°10.307 2°38.569 -999 -999 -999 -999
2007-08-21 08:01:14 51°10.302 2°38.542 -999 -999 -999 -999
2007-08-21 08:01:19 51°10.296 2°38.516 -999 -999 -999 -999
2007-08-21 08:01:24 51°10.29 2°38.49 -999 -999 -999 -999
2007-08-21 08:01:29 51°10.284 2°38.464 -999 -999 -999 -999
2007-08-21 08:01:34 51°10.277 2°38.438 -999 -999 -999 -999
2007-08-21 08:01:39 51°10.272 2°38.412 -999 -999 -999 -999
2007-08-21 08:01:44 51°10.266 2°38.386 -999 -999 -999 -999
2007-08-21 08:01:49 51°10.26 2°38.36 -999 -999 -999 -999
2007-08-21 08:01:54 51°10.254 2°38.333 -999 -999 -999 -999
2007-08-21 08:01:58 51°10.249 2°38.312 -999 -999 -999 -999
2007-08-21 08:02:04 51°10.242 2°38.28 -999 -999 -999 -999
2007-08-21 08:02:09 51°10.236 2°38.254 -999 -999 -999 -999
2007-08-21 08:02:14 51°10.231 2°38.228 -999 -999 -999 -999
2007-08-21 08:02:19 51°10.225 2°38.201 -999 -999 -999 -999
2007-08-21 08:02:24 51°10.22 2°38.175 -999 -999 -999 -999
2007-08-21 08:02:29 51°10.213 2°38.148 -999 -999 -999 -999
2007-08-21 08:02:34 51°10.208 2°38.122 -999 -999 -999 -999
2007-08-21 08:02:38 51°10.203 2°38.101 -999 -999 -999 -999
2007-08-21 08:02:44 51°10.195 2°38.07 -999 -999 -999 -999
2007-08-21 08:02:49 51°10.19 2°38.043 -999 -999 -999 -999
2007-08-21 08:02:54 51°10.183 2°38.017 -999 -999 -999 -999
2007-08-21 08:02:59 51°10.178 2°37.99 -999 -999 -999 -999
2007-08-21 08:03:04 51°10.172 2°37.964 -999 -999 -999 -999
2007-08-21 08:03:09 51°10.166 2°37.937 -999 -999 -999 -999
2007-08-21 08:03:14 51°10.161 2°37.911 -999 -999 -999 -999
2007-08-21 08:03:19 51°10.154 2°37.885 -999 -999 -999 -999
2007-08-21 08:03:24 51°10.148 2°37.858 -999 -999 -999 -999
2007-08-21 08:03:29 51°10.142 2°37.832 -999 -999 -999 -999
2007-08-21 08:03:33 51°10.138 2°37.811 -999 -999 -999 -999
2007-08-21 08:03:39 51°10.13 2°37.779 -999 -999 -999 -999
2007-08-21 08:03:44 51°10.124 2°37.752 -999 -999 -999 -999
2007-08-21 08:03:49 51°10.118 2°37.726 -999 -999 -999 -999
2007-08-21 08:03:53 51°10.114 2°37.704 -999 -999 -999 -999
2007-08-21 08:03:59 51°10.106 2°37.673 -999 -999 -999 -999
2007-08-21 08:04:04 51°10.101 2°37.646 -999 -999 -999 -999
2007-08-21 08:04:09 51°10.094 2°37.62 -999 -999 -999 -999
2007-08-21 08:04:14 51°10.089 2°37.593 -999 -999 -999 -999
2007-08-21 08:04:18 51°10.083 2°37.572 -999 -999 -999 -999
2007-08-21 08:04:24 51°10.076 2°37.54 -999 -999 -999 -999
2007-08-21 08:04:29 51°10.07 2°37.514 -999 -999 -999 -999
2007-08-21 08:04:34 51°10.065 2°37.487 -999 -999 -999 -999
2007-08-21 08:04:38 51°10.06 2°37.466 -999 -999 -999 -999
2007-08-21 08:04:44 51°10.053 2°37.434 -999 -999 -999 -999
2007-08-21 08:04:49 51°10.047 2°37.408 -999 -999 -999 -999
2007-08-21 08:04:54 51°10.041 2°37.381 -999 -999 -999 -999
2007-08-21 08:04:59 51°10.035 2°37.354 -999 -999 -999 -999
2007-08-21 08:05:04 51°10.029 2°37.327 -999 -999 -999 -999
2007-08-21 08:05:09 51°10.023 2°37.301 -999 -999 -999 -999
2007-08-21 08:05:14 51°10.018 2°37.274 -999 -999 -999 -999
2007-08-21 08:05:19 51°10.011 2°37.248 -999 -999 -999 -999
2007-08-21 08:05:24 51°10.006 2°37.221 -999 -999 -999 -999
2007-08-21 08:05:29 51°10 2°37.194 -999 -999 -999 -999
2007-08-21 08:05:34 51°9.995 2°37.167 -999 -999 -999 -999
2007-08-21 08:05:39 51°9.989 2°37.14 -999 -999 -999 -999
2007-08-21 08:05:44 51°9.983 2°37.114 -999 -999 -999 -999
2007-08-21 08:05:49 51°9.978 2°37.086 -999 -999 -999 -999
2007-08-21 08:05:54 51°9.972 2°37.059 -999 -999 -999 -999
2007-08-21 08:05:59 51°9.968 2°37.032 -999 -999 -999 -999
2007-08-21 08:06:04 51°9.962 2°37.005 -999 -999 -999 -999
2007-08-21 08:06:09 51°9.957 2°36.978 -999 -999 -999 -999
2007-08-21 08:06:13 51°9.953 2°36.957 -999 -999 -999 -999
2007-08-21 08:06:19 51°9.946 2°36.924 -999 -999 -999 -999
2007-08-21 08:06:24 51°9.941 2°36.897 -999 -999 -999 -999
2007-08-21 08:06:29 51°9.935 2°36.87 -999 -999 -999 -999
2007-08-21 08:06:34 51°9.93 2°36.843 -999 -999 -999 -999
2007-08-21 08:06:38 51°9.925 2°36.822 -999 -999 -999 -999
2007-08-21 08:06:44 51°9.919 2°36.789 -999 -999 -999 -999
2007-08-21 08:06:49 51°9.912 2°36.762 -999 -999 -999 -999
2007-08-21 08:06:54 51°9.908 2°36.735 -999 -999 -999 -999